Time;durP1;ratioP1;P1;durP2;ratioP2;P2;SDS_P1;SDS_P2;PMS_P1;PMS_P2;Temp;Humidity;BMP_temperature;BMP_pressure;BME280_temperature;BME280_humidity;BME280_pressure;Samples;Min_cycle;Max_cycle;Signal;HPM_P1;HPM_P2
2023/11/17 00:00:13;;;;;;;26.60;14.13;;;4.80;99.90;;;;;;4954714;29;20281;-83
2023/11/17 00:02:41;;;;;;;30.83;14.40;;;4.80;99.90;;;;;;4937253;29;20205;-83
2023/11/17 00:05:09;;;;;;;30.13;13.97;;;4.80;99.90;;;;;;4949843;29;20242;-83
2023/11/17 00:07:36;;;;;;;25.03;14.00;;;4.80;99.90;;;;;;4934669;29;20643;-84
2023/11/17 00:10:04;;;;;;;28.40;13.43;;;4.70;99.90;;;;;;4933830;29;20226;-83
2023/11/17 00:12:32;;;;;;;29.83;13.83;;;4.70;99.90;;;;;;4949991;29;20255;-83
2023/11/17 00:14:59;;;;;;;28.07;14.53;;;4.80;99.90;;;;;;4949748;29;20203;-83
2023/11/17 00:17:27;;;;;;;29.67;14.37;;;4.70;99.90;;;;;;4934361;29;20213;-83
2023/11/17 00:19:55;;;;;;;25.23;13.17;;;4.70;99.90;;;;;;4949774;29;20211;-83
2023/11/17 00:22:22;;;;;;;28.63;14.20;;;4.70;99.90;;;;;;4950081;29;20223;-82
2023/11/17 00:24:49;;;;;;;26.90;14.47;;;4.70;99.90;;;;;;4934094;29;20202;-83
2023/11/17 00:27:17;;;;;;;33.70;14.03;;;4.70;99.90;;;;;;4935004;29;20215;-82
2023/11/17 00:29:44;;;;;;;30.80;14.37;;;4.70;99.90;;;;;;4935282;29;20199;-83
2023/11/17 00:32:12;;;;;;;28.60;14.10;;;4.70;99.90;;;;;;4949646;29;20199;-83
2023/11/17 00:34:39;;;;;;;26.83;13.47;;;4.80;99.90;;;;;;4934967;29;20211;-83
2023/11/17 00:37:07;;;;;;;27.70;13.67;;;4.70;99.90;;;;;;4934891;29;20190;-83
2023/11/17 00:39:37;;;;;;;27.30;14.17;;;4.70;99.90;;;;;;4918040;29;20226;-83
2023/11/17 00:42:04;;;;;;;30.50;14.43;;;4.70;99.90;;;;;;4934019;29;20223;-84
2023/11/17 00:44:32;;;;;;;27.57;14.07;;;4.70;99.90;;;;;;4934964;29;20200;-84
2023/11/17 00:46:59;;;;;;;31.13;14.70;;;4.60;99.90;;;;;;4935575;29;20670;-84
2023/11/17 00:49:27;;;;;;;29.77;13.93;;;4.60;99.90;;;;;;4933830;29;20216;-84
2023/11/17 00:51:55;;;;;;;28.43;14.17;;;4.50;99.90;;;;;;4934258;29;20227;-84
2023/11/17 00:54:26;;;;;;;26.43;13.70;;;4.40;99.90;;;;;;4935420;29;20247;-84
2023/11/17 00:56:56;;;;;;;28.63;14.57;;;4.40;99.90;;;;;;4935207;29;20236;-82
2023/11/17 00:59:24;;;;;;;26.53;13.90;;;4.30;99.90;;;;;;4935173;29;20198;-84
2023/11/17 01:01:51;;;;;;;26.50;13.70;;;4.20;99.90;;;;;;4917384;29;20242;-84
2023/11/17 01:04:19;;;;;;;25.67;13.70;;;4.20;99.90;;;;;;4933493;29;20231;-83
2023/11/17 01:06:53;;;;;;;27.63;13.60;;;4.20;99.90;;;;;;4949838;29;20226;-83
2023/11/17 01:09:22;;;;;;;29.70;13.00;;;4.20;99.90;;;;;;4949285;29;20663;-82
2023/11/17 01:11:49;;;;;;;29.70;14.17;;;4.10;99.90;;;;;;4917650;29;20692;-83
2023/11/17 01:14:17;;;;;;;24.20;13.10;;;4.20;99.90;;;;;;4934965;29;20229;-83
2023/11/17 01:16:45;;;;;;;31.53;14.13;;;4.20;99.90;;;;;;4934737;29;20242;-83
2023/11/17 01:19:13;;;;;;;27.37;13.73;;;4.10;99.90;;;;;;4917444;29;20210;-83
2023/11/17 01:21:40;;;;;;;26.70;13.33;;;4.10;99.90;;;;;;4933403;29;20191;-83
2023/11/17 01:24:07;;;;;;;24.13;12.73;;;4.10;99.90;;;;;;4934915;29;20203;-83
2023/11/17 01:26:34;;;;;;;23.17;12.60;;;4.10;99.90;;;;;;4933462;29;20258;-83
2023/11/17 01:29:04;;;;;;;23.80;12.00;;;4.00;99.90;;;;;;4934781;29;20210;-83
2023/11/17 01:31:32;;;;;;;25.07;12.73;;;4.00;99.90;;;;;;4921122;29;20251;-82
2023/11/17 01:33:59;;;;;;;23.70;11.77;;;4.10;99.90;;;;;;4953085;29;20308;-82
2023/11/17 01:36:27;;;;;;;23.87;12.77;;;4.00;99.90;;;;;;4921285;29;20659;-82
2023/11/17 01:38:54;;;;;;;22.33;12.37;;;4.00;99.90;;;;;;4953049;29;20205;-81
2023/11/17 01:41:23;;;;;;;21.73;11.47;;;4.10;99.90;;;;;;4936603;29;20717;-83
2023/11/17 01:43:50;;;;;;;22.20;11.70;;;4.00;99.90;;;;;;4938103;29;20191;-83
2023/11/17 01:46:20;;;;;;;23.93;12.30;;;4.00;99.90;;;;;;4938124;29;20203;-83
2023/11/17 01:48:48;;;;;;;20.93;10.67;;;4.00;99.90;;;;;;4938196;29;20211;-84
2023/11/17 01:51:15;;;;;;;21.77;11.17;;;3.90;99.90;;;;;;4936389;29;20199;-84
2023/11/17 01:53:42;;;;;;;18.87;11.10;;;4.00;99.90;;;;;;4952400;29;20719;-83
2023/11/17 01:56:11;;;;;;;19.63;11.13;;;3.90;99.90;;;;;;4952290;29;20209;-83
2023/11/17 01:58:38;;;;;;;19.73;10.60;;;3.90;99.90;;;;;;4936837;29;20199;-83
2023/11/17 02:01:08;;;;;;;19.77;10.77;;;3.90;99.90;;;;;;4938542;29;20253;-83
2023/11/17 02:03:39;;;;;;;19.03;10.87;;;3.90;99.90;;;;;;4936399;29;20675;-83
2023/11/17 02:06:32;;;;;;;21.13;11.90;;;3.90;99.90;;;;;;4918805;29;20204;-83
2023/11/17 02:08:59;;;;;;;20.93;10.87;;;3.90;99.90;;;;;;4918839;29;20531;-83
2023/11/17 02:11:35;;;;;;;19.70;10.57;;;3.90;99.90;;;;;;4918530;29;20225;-83
2023/11/17 02:14:18;;;;;;;19.73;10.83;;;4.00;99.90;;;;;;4901686;29;20220;-83
2023/11/17 02:16:48;;;;;;;19.00;11.27;;;4.00;99.90;;;;;;4901694;29;20211;-83
2023/11/17 02:19:33;;;;;;;16.27;9.73;;;4.00;99.90;;;;;;4901443;29;20660;-83
2023/11/17 02:22:06;;;;;;;19.53;9.90;;;4.00;99.90;;;;;;4918570;29;20224;-83
2023/11/17 02:24:44;;;;;;;17.70;10.37;;;4.00;99.90;;;;;;4919055;29;20242;-83
2023/11/17 02:27:25;;;;;;;17.83;9.80;;;4.00;99.90;;;;;;4902608;29;20220;-83
2023/11/17 02:29:58;;;;;;;17.23;10.20;;;4.00;99.90;;;;;;4919145;29;20196;-83
2023/11/17 02:32:29;;;;;;;17.67;9.70;;;4.00;99.90;;;;;;4901762;29;20250;-83
2023/11/17 02:34:58;;;;;;;18.07;10.33;;;4.00;99.90;;;;;;4916929;29;20408;-83
2023/11/17 02:37:25;;;;;;;18.57;9.53;;;4.00;99.90;;;;;;4918310;29;20195;-83
2023/11/17 02:39:55;;;;;;;17.67;9.67;;;4.00;99.90;;;;;;4884998;29;20219;-83
2023/11/17 02:42:26;;;;;;;16.40;9.40;;;3.90;99.90;;;;;;4917889;29;20203;-84
2023/11/17 02:45:00;;;;;;;16.60;9.17;;;3.90;99.90;;;;;;4903205;29;20572;-83
2023/11/17 02:47:29;;;;;;;17.03;9.87;;;4.00;99.90;;;;;;4901722;29;20245;-83
2023/11/17 02:50:01;;;;;;;18.47;9.87;;;4.00;99.90;;;;;;4886152;29;20208;-83
2023/11/17 02:52:42;;;;;;;17.90;9.73;;;4.00;99.90;;;;;;4901013;29;20226;-83
2023/11/17 02:55:13;;;;;;;16.83;9.07;;;4.00;99.90;;;;;;4900584;29;20239;-83
2023/11/17 02:57:42;;;;;;;16.00;9.00;;;4.00;99.90;;;;;;4917756;29;20656;-83
2023/11/17 03:00:10;;;;;;;16.33;9.57;;;4.00;99.90;;;;;;4917567;29;20199;-83
2023/11/17 03:02:40;;;;;;;16.67;9.23;;;4.00;99.90;;;;;;4916562;29;20238;-82
2023/11/17 03:05:13;;;;;;;14.47;8.90;;;4.00;99.90;;;;;;4929643;29;20320;-83
2023/11/17 03:07:41;;;;;;;18.17;9.70;;;4.00;99.90;;;;;;4920997;29;20247;-83
2023/11/17 03:10:08;;;;;;;16.83;9.07;;;4.00;99.90;;;;;;4937546;29;20205;-82
2023/11/17 03:12:36;;;;;;;17.43;8.93;;;4.00;99.90;;;;;;4938432;29;20562;-83
2023/11/17 03:15:04;;;;;;;15.20;9.20;;;3.90;99.90;;;;;;4937209;29;20229;-83
2023/11/17 03:17:32;;;;;;;17.20;9.13;;;3.90;99.90;;;;;;4936628;29;20647;-83
2023/11/17 03:20:00;;;;;;;16.50;9.03;;;3.90;99.90;;;;;;4936544;29;20202;-84
2023/11/17 03:22:27;;;;;;;14.93;8.47;;;3.90;99.90;;;;;;4934892;29;20234;-83
2023/11/17 03:24:57;;;;;;;14.47;8.80;;;3.90;99.90;;;;;;4934799;29;20226;-84
2023/11/17 03:27:24;;;;;;;18.47;9.60;;;3.90;99.90;;;;;;4935129;29;20205;-83
2023/11/17 03:29:51;;;;;;;16.27;8.87;;;4.00;99.90;;;;;;4936383;29;20198;-83
2023/11/17 03:32:19;;;;;;;14.87;8.80;;;4.00;99.90;;;;;;4935908;29;20898;-83
2023/11/17 03:34:46;;;;;;;14.23;8.13;;;3.90;99.90;;;;;;4935846;29;20675;-83
2023/11/17 03:37:13;;;;;;;14.70;8.47;;;3.90;99.90;;;;;;4936145;29;20296;-83
2023/11/17 03:39:43;;;;;;;15.20;8.80;;;4.00;99.90;;;;;;4934894;29;20195;-84
2023/11/17 03:42:12;;;;;;;12.97;8.07;;;3.90;99.90;;;;;;4918787;29;20353;-83
2023/11/17 03:44:40;;;;;;;12.77;7.97;;;3.90;99.90;;;;;;4935700;29;20257;-83
2023/11/17 03:47:07;;;;;;;14.70;8.70;;;3.90;99.90;;;;;;4918624;29;20290;-83
2023/11/17 03:49:34;;;;;;;12.77;7.87;;;3.90;99.90;;;;;;4934720;29;20291;-83
2023/11/17 03:52:03;;;;;;;15.53;8.50;;;4.00;99.90;;;;;;4935393;29;20282;-83
2023/11/17 03:54:32;;;;;;;12.47;7.87;;;3.90;99.90;;;;;;4918876;29;20228;-83
2023/11/17 03:57:01;;;;;;;13.63;8.07;;;3.90;99.90;;;;;;4918390;29;20278;-83
2023/11/17 03:59:30;;;;;;;13.57;8.20;;;3.90;99.90;;;;;;4918794;29;20237;-82
2023/11/17 04:01:58;;;;;;;16.57;8.47;;;3.90;99.90;;;;;;4918235;29;20202;-82
2023/11/17 04:04:26;;;;;;;12.63;7.57;;;3.80;99.90;;;;;;4912207;29;20240;-83
2023/11/17 04:06:57;;;;;;;13.83;7.93;;;3.80;99.90;;;;;;4899916;29;20210;-82
2023/11/17 04:09:25;;;;;;;14.33;7.90;;;3.80;99.90;;;;;;4916436;29;20204;-83
2023/11/17 04:11:53;;;;;;;12.80;7.83;;;3.80;99.90;;;;;;4915494;29;20225;-82
2023/11/17 04:14:22;;;;;;;13.30;8.03;;;3.80;99.90;;;;;;4915524;29;20676;-82
2023/11/17 04:16:49;;;;;;;13.60;8.23;;;3.80;99.90;;;;;;4917508;29;20238;-82
2023/11/17 04:19:17;;;;;;;12.67;7.83;;;3.80;99.90;;;;;;4930995;29;20203;-82
2023/11/17 04:21:46;;;;;;;12.83;7.33;;;3.80;99.90;;;;;;4916279;29;20239;-82
2023/11/17 04:24:13;;;;;;;12.63;7.20;;;3.80;99.90;;;;;;4914990;29;20222;-83
2023/11/17 04:26:40;;;;;;;14.33;8.10;;;3.80;99.90;;;;;;4899240;29;20339;-82
2023/11/17 04:29:08;;;;;;;13.23;7.70;;;3.80;99.90;;;;;;4916180;29;20222;-83
2023/11/17 04:31:36;;;;;;;15.97;7.80;;;3.80;99.90;;;;;;4916046;29;20653;-83
2023/11/17 04:34:03;;;;;;;11.30;7.37;;;3.80;99.90;;;;;;4914922;29;20230;-83
2023/11/17 04:36:33;;;;;;;13.90;7.80;;;3.70;99.90;;;;;;4917167;29;20195;-82
2023/11/17 04:39:01;;;;;;;12.03;7.07;;;3.80;99.90;;;;;;4899371;29;20305;-83
2023/11/17 04:41:31;;;;;;;12.27;7.67;;;3.80;99.90;;;;;;4899327;29;20220;-83
2023/11/17 04:43:59;;;;;;;12.30;7.33;;;3.70;99.90;;;;;;4916298;29;20217;-83
2023/11/17 04:46:27;;;;;;;11.80;7.60;;;3.70;99.90;;;;;;4914530;29;20207;-83
2023/11/17 04:48:55;;;;;;;12.43;7.47;;;3.70;99.90;;;;;;4914857;29;20286;-83
2023/11/17 04:51:21;;;;;;;11.77;7.60;;;3.70;99.90;;;;;;4916304;29;20225;-83
2023/11/17 04:53:49;;;;;;;16.03;7.90;;;3.70;99.90;;;;;;4914493;29;20677;-82
2023/11/17 04:56:17;;;;;;;14.40;8.27;;;3.70;99.90;;;;;;4899115;29;20694;-82
2023/11/17 04:58:45;;;;;;;14.20;7.80;;;3.70;99.90;;;;;;4915010;29;20241;-83
2023/11/17 05:01:15;;;;;;;13.00;7.73;;;3.70;99.90;;;;;;4915846;29;20188;-82
2023/11/17 05:03:43;;;;;;;12.90;7.53;;;3.80;99.90;;;;;;4916108;29;20211;-83
2023/11/17 05:06:10;;;;;;;16.37;8.17;;;3.80;99.90;;;;;;4938780;29;20227;-82
2023/11/17 05:08:38;;;;;;;14.27;8.00;;;3.80;99.90;;;;;;4938984;29;20192;-82
2023/11/17 05:11:05;;;;;;;13.57;7.50;;;3.80;99.90;;;;;;4937525;29;20253;-82
2023/11/17 05:13:35;;;;;;;13.60;7.73;;;3.80;99.90;;;;;;4938689;29;20287;-83
2023/11/17 05:16:03;;;;;;;11.50;7.23;;;3.70;99.90;;;;;;4938245;29;20225;-82
2023/11/17 05:18:31;;;;;;;12.43;7.77;;;3.70;99.90;;;;;;4938350;29;20214;-82
2023/11/17 05:20:59;;;;;;;16.30;8.17;;;3.80;99.90;;;;;;4921191;29;20261;-82
2023/11/17 05:23:26;;;;;;;12.93;7.80;;;3.90;99.90;;;;;;4937116;29;20282;-82
2023/11/17 05:25:53;;;;;;;13.23;7.53;;;3.90;99.90;;;;;;4936931;29;20215;-82
2023/11/17 05:28:20;;;;;;;13.13;7.73;;;3.80;99.90;;;;;;4937182;29;20720;-82
2023/11/17 05:30:47;;;;;;;13.20;8.00;;;3.90;99.90;;;;;;4938313;29;20230;-82
2023/11/17 05:33:18;;;;;;;12.73;7.40;;;3.80;99.90;;;;;;4938459;29;20208;-82
2023/11/17 05:35:46;;;;;;;11.17;7.37;;;3.90;99.90;;;;;;4921112;29;20221;-82
2023/11/17 05:38:13;;;;;;;12.83;7.20;;;3.90;99.90;;;;;;4937253;29;20194;-83
2023/11/17 05:40:41;;;;;;;14.13;7.70;;;3.80;99.90;;;;;;4938325;29;20261;-82
2023/11/17 05:43:08;;;;;;;12.77;7.47;;;3.80;99.90;;;;;;4936904;29;20258;-82
2023/11/17 05:45:36;;;;;;;12.77;7.67;;;3.80;99.90;;;;;;4937878;29;20195;-82
2023/11/17 05:48:05;;;;;;;13.23;7.37;;;3.80;99.90;;;;;;4952507;29;20211;-82
2023/11/17 05:50:33;;;;;;;11.90;7.30;;;3.80;99.90;;;;;;4920665;29;20211;-82
2023/11/17 05:53:00;;;;;;;13.23;7.60;;;3.80;99.90;;;;;;4938743;29;20214;-83
2023/11/17 05:55:27;;;;;;;11.97;7.47;;;3.70;99.90;;;;;;4940961;29;20269;-82
2023/11/17 05:57:55;;;;;;;11.20;7.60;;;3.70;99.90;;;;;;4937894;29;20199;-81
2023/11/17 06:00:27;;;;;;;12.30;7.47;;;3.80;99.90;;;;;;4937919;29;20206;-82
2023/11/17 06:02:54;;;;;;;12.77;7.47;;;3.80;99.90;;;;;;4937555;29;20663;-82
2023/11/17 06:05:22;;;;;;;15.63;7.83;;;3.70;99.90;;;;;;4936283;29;20726;-82
2023/11/17 06:07:49;;;;;;;12.73;7.70;;;3.80;99.90;;;;;;4920931;29;20270;-82
2023/11/17 06:10:17;;;;;;;11.90;7.87;;;3.70;99.90;;;;;;4938803;29;20700;-83
2023/11/17 06:12:44;;;;;;;13.90;7.97;;;3.70;99.90;;;;;;4937783;29;20207;-81
2023/11/17 06:15:14;;;;;;;12.93;7.87;;;3.70;99.90;;;;;;4918893;29;20234;-82
2023/11/17 06:17:42;;;;;;;13.20;7.57;;;3.60;99.90;;;;;;4937766;29;20251;-82
2023/11/17 06:20:10;;;;;;;13.57;8.10;;;3.60;99.90;;;;;;4937344;29;20270;-82
2023/11/17 06:22:37;;;;;;;13.63;8.13;;;3.60;99.90;;;;;;4937760;29;20195;-82
2023/11/17 06:25:05;;;;;;;11.77;7.70;;;3.60;99.90;;;;;;4920291;29;20293;-82
2023/11/17 06:27:33;;;;;;;15.27;8.20;;;3.60;99.90;;;;;;4937406;29;20195;-82
2023/11/17 06:30:02;;;;;;;15.70;8.03;;;3.60;99.90;;;;;;4936129;29;20205;-83
2023/11/17 06:32:29;;;;;;;11.60;7.30;;;3.60;99.90;;;;;;4937310;29;20218;-82
2023/11/17 06:34:57;;;;;;;12.43;7.40;;;3.60;99.90;;;;;;4935974;29;20219;-82
2023/11/17 06:37:24;;;;;;;12.77;7.80;;;3.60;99.90;;;;;;4937353;29;20290;-82
2023/11/17 06:39:51;;;;;;;14.80;8.00;;;3.60;99.90;;;;;;4920391;29;20637;-83
2023/11/17 06:42:18;;;;;;;13.27;7.23;;;3.50;99.90;;;;;;4937369;29;20224;-82
2023/11/17 06:44:46;;;;;;;12.63;7.07;;;3.60;99.90;;;;;;4937216;29;20277;-81
2023/11/17 06:47:16;;;;;;;12.50;7.47;;;3.60;99.90;;;;;;4937674;29;20194;-82
2023/11/17 06:49:43;;;;;;;12.17;7.33;;;3.70;99.90;;;;;;4936148;29;20597;-83
2023/11/17 06:52:12;;;;;;;12.97;7.43;;;3.60;99.90;;;;;;4937450;29;20199;-83
2023/11/17 06:54:40;;;;;;;13.27;7.43;;;3.70;99.90;;;;;;4935576;29;20227;-84
2023/11/17 06:57:08;;;;;;;13.50;7.27;;;3.80;99.90;;;;;;4936843;29;20302;-84
2023/11/17 06:59:34;;;;;;;11.70;7.40;;;3.70;99.90;;;;;;4936779;29;20194;-85
2023/11/17 07:02:03;;;;;;;12.87;7.50;;;3.70;99.90;;;;;;4936711;29;20243;-84
2023/11/17 07:04:30;;;;;;;13.40;7.63;;;3.70;99.90;;;;;;4936478;29;20305;-81
2023/11/17 07:06:59;;;;;;;12.13;7.33;;;3.70;99.90;;;;;;4936791;29;20203;-82
2023/11/17 07:09:30;;;;;;;13.80;7.87;;;3.70;99.90;;;;;;4936475;29;20747;-82
2023/11/17 07:12:00;;;;;;;14.23;8.17;;;3.70;99.90;;;;;;4935190;29;20317;-83
2023/11/17 07:14:30;;;;;;;12.40;7.97;;;3.70;99.90;;;;;;4935253;29;20191;-83
2023/11/17 07:16:58;;;;;;;12.90;7.57;;;3.70;99.90;;;;;;4934884;29;20257;-84
2023/11/17 07:19:25;;;;;;;14.23;7.80;;;3.70;99.90;;;;;;4934931;29;20214;-83
2023/11/17 07:21:52;;;;;;;14.07;7.87;;;3.70;99.90;;;;;;4935568;29;20195;-87
2023/11/17 07:24:19;;;;;;;15.20;8.50;;;3.70;99.90;;;;;;4936469;29;20203;-85
2023/11/17 07:26:47;;;;;;;14.43;8.37;;;3.70;99.90;;;;;;4935951;29;20215;-89
2023/11/17 07:29:16;;;;;;;14.30;7.63;;;3.70;99.90;;;;;;4936486;29;20195;-89
2023/11/17 07:31:45;;;;;;;15.60;8.30;;;3.70;99.90;;;;;;4936762;29;20208;-85
2023/11/17 07:34:16;;;;;;;15.10;8.80;;;3.70;99.90;;;;;;4935445;29;20226;-88
2023/11/17 07:36:45;;;;;;;15.00;8.43;;;3.80;99.90;;;;;;4936506;29;20253;-91
2023/11/17 07:39:13;;;;;;;15.83;8.40;;;3.80;99.90;;;;;;4935491;29;20195;-93
2023/11/17 07:41:41;;;;;;;15.03;8.20;;;3.70;99.90;;;;;;4937866;29;20242;-91
2023/11/17 07:44:08;;;;;;;16.43;8.80;;;3.80;99.90;;;;;;4934857;29;20747;-87
2023/11/17 07:46:36;;;;;;;13.60;8.60;;;3.80;99.90;;;;;;4937109;29;20207;-89
2023/11/17 07:49:10;;;;;;;16.97;9.10;;;3.90;99.90;;;;;;4937107;29;20735;-87
2023/11/17 07:51:37;;;;;;;13.70;8.30;;;3.90;99.90;;;;;;4951083;29;20195;-88
2023/11/17 07:54:06;;;;;;;15.17;8.60;;;3.90;99.90;;;;;;4936425;29;20187;-92
2023/11/17 07:56:35;;;;;;;15.53;8.77;;;3.90;99.90;;;;;;4935103;29;20672;-92
2023/11/17 07:59:03;;;;;;;15.33;8.77;;;3.90;99.90;;;;;;4936123;29;20293;-90
2023/11/17 08:01:30;;;;;;;15.33;8.57;;;3.90;99.90;;;;;;4936926;29;20253;-87
2023/11/17 08:03:58;;;;;;;18.20;8.60;;;3.90;99.90;;;;;;4937541;29;20202;-96
2023/11/17 08:06:26;;;;;;;14.97;9.33;;;3.90;99.90;;;;;;4939986;29;20255;-94
2023/11/17 08:08:55;;;;;;;14.53;8.90;;;3.90;99.90;;;;;;4935387;29;20207;-88
2023/11/17 08:11:25;;;;;;;16.87;9.07;;;3.90;99.90;;;;;;4935451;29;20219;-90
2023/11/17 08:13:52;;;;;;;21.77;8.77;;;3.90;99.90;;;;;;4936242;29;20226;-90
2023/11/17 08:16:21;;;;;;;17.33;8.50;;;3.90;99.90;;;;;;4903018;29;20227;-95
2023/11/17 08:18:51;;;;;;;16.13;8.23;;;4.00;99.90;;;;;;4935868;29;20199;-89
2023/11/17 08:21:18;;;;;;;15.93;8.87;;;3.90;99.90;;;;;;4934625;29;20213;-88
2023/11/17 08:23:46;;;;;;;14.20;8.43;;;3.80;99.90;;;;;;4934239;29;20246;-89
2023/11/17 08:26:15;;;;;;;16.00;9.27;;;3.80;99.90;;;;;;4903230;29;20215;-89
2023/11/17 08:28:42;;;;;;;15.27;9.00;;;3.80;99.90;;;;;;4934276;29;20211;-86
2023/11/17 08:31:14;;;;;;;14.73;9.00;;;3.80;99.90;;;;;;4936295;29;20197;-94
2023/11/17 08:33:45;;;;;;;14.17;8.33;;;3.80;99.90;;;;;;4935569;29;20197;-88
2023/11/17 08:36:12;;;;;;;15.10;8.50;;;3.80;99.90;;;;;;4918647;29;20231;-94
2023/11/17 08:38:43;;;;;;;13.47;8.07;;;3.80;99.90;;;;;;4933943;29;20330;-84
2023/11/17 08:41:10;;;;;;;13.77;7.93;;;3.80;99.90;;;;;;4933888;29;20282;-87
2023/11/17 08:43:39;;;;;;;13.17;7.80;;;3.90;99.90;;;;;;4935662;29;20203;-89
2023/11/17 08:46:07;;;;;;;12.17;7.47;;;4.00;99.90;;;;;;4935378;29;20212;-86
2023/11/17 08:48:35;;;;;;;13.40;7.13;;;3.80;99.90;;;;;;4934073;29;20199;-88
2023/11/17 08:51:03;;;;;;;10.80;6.50;;;3.80;99.90;;;;;;4935319;29;20211;-85
2023/11/17 08:53:30;;;;;;;11.13;7.30;;;3.80;99.90;;;;;;4918370;29;20290;-86
2023/11/17 08:56:00;;;;;;;15.27;7.70;;;3.90;99.90;;;;;;4934521;29;20747;-88
2023/11/17 08:58:28;;;;;;;12.33;7.37;;;3.90;99.90;;;;;;4902941;29;20218;-88
2023/11/17 09:00:57;;;;;;;13.17;7.60;;;3.80;99.90;;;;;;4950303;29;20200;-90
2023/11/17 09:03:30;;;;;;;18.27;7.43;;;3.90;99.90;;;;;;4949606;29;20656;-90
2023/11/17 09:05:59;;;;;;;11.47;6.87;;;3.80;99.90;;;;;;4918639;29;20267;-91
2023/11/17 09:08:26;;;;;;;9.93;6.50;;;3.70;99.90;;;;;;4949304;29;20210;-90
2023/11/17 09:10:53;;;;;;;9.33;6.43;;;3.90;99.90;;;;;;4933968;29;20282;-89
2023/11/17 09:13:21;;;;;;;11.53;6.53;;;3.70;99.90;;;;;;4950578;29;20201;-86
2023/11/17 09:15:48;;;;;;;11.40;6.40;;;3.90;99.90;;;;;;4934939;29;20240;-81
2023/11/17 09:18:15;;;;;;;13.30;7.40;;;3.90;99.90;;;;;;4918280;29;20286;-82
2023/11/17 09:20:42;;;;;;;11.03;6.60;;;4.00;99.90;;;;;;4933743;29;20710;-82
2023/11/17 09:23:09;;;;;;;10.27;7.00;;;4.00;99.90;;;;;;4935182;29;20286;-84
2023/11/17 09:25:37;;;;;;;11.60;7.10;;;3.90;99.90;;;;;;4935209;29;20211;-82
2023/11/17 09:28:04;;;;;;;10.47;6.60;;;3.90;99.90;;;;;;4935559;29;20199;-84
2023/11/17 09:30:32;;;;;;;10.87;6.53;;;4.00;99.90;;;;;;4934939;29;20278;-82
2023/11/17 09:33:02;;;;;;;12.87;6.97;;;4.00;99.90;;;;;;4933491;29;20618;-83
2023/11/17 09:35:32;;;;;;;9.23;6.17;;;4.00;99.90;;;;;;4917736;29;20321;-85
2023/11/17 09:38:01;;;;;;;10.13;6.20;;;4.00;99.90;;;;;;4918192;29;20649;-86
2023/11/17 09:40:30;;;;;;;8.57;6.27;;;3.90;99.90;;;;;;4933840;29;20215;-83
2023/11/17 09:43:18;;;;;;;7.97;5.87;;;3.90;99.90;;;;;;4934551;29;20196;-83
2023/11/17 09:45:47;;;;;;;8.77;5.97;;;3.90;99.90;;;;;;4933603;29;20230;-82
2023/11/17 09:48:16;;;;;;;9.50;6.10;;;3.90;99.90;;;;;;4936697;29;20192;-83
2023/11/17 09:50:45;;;;;;;10.87;6.67;;;3.90;99.90;;;;;;4940886;29;20642;-84
2023/11/17 09:53:15;;;;;;;9.70;6.20;;;4.00;99.90;;;;;;4924169;29;20195;-85
2023/11/17 09:55:46;;;;;;;9.03;6.17;;;4.00;99.90;;;;;;4939694;29;20309;-86
2023/11/17 09:58:13;;;;;;;10.73;6.57;;;4.00;99.90;;;;;;4945861;29;20199;-79
2023/11/17 10:00:45;;;;;;;9.50;6.20;;;4.00;99.90;;;;;;4944748;29;20258;-83
2023/11/17 10:03:13;;;;;;;10.10;6.60;;;3.90;99.90;;;;;;4937875;29;20455;-82
2023/11/17 10:05:42;;;;;;;9.53;6.40;;;3.90;99.90;;;;;;4937900;29;20241;-87
2023/11/17 10:08:13;;;;;;;9.87;6.50;;;3.90;99.90;;;;;;4937570;29;20225;-83
2023/11/17 10:10:45;;;;;;;9.83;6.10;;;3.90;99.90;;;;;;4920448;29;20233;-82
2023/11/17 10:13:15;;;;;;;9.83;6.07;;;4.00;99.90;;;;;;4937902;29;20194;-84
2023/11/17 10:15:45;;;;;;;9.57;5.90;;;4.00;99.90;;;;;;4936084;29;20316;-83
2023/11/17 10:18:24;;;;;;;9.63;6.23;;;4.10;99.90;;;;;;4942676;29;20195;-82
2023/11/17 10:20:53;;;;;;;9.17;6.03;;;4.00;99.90;;;;;;4921393;29;20211;-80
2023/11/17 10:23:21;;;;;;;10.30;6.57;;;3.90;99.90;;;;;;4936463;29;20195;-84
2023/11/17 10:25:54;;;;;;;9.97;6.63;;;3.90;99.90;;;;;;4920136;29;20322;-85
2023/11/17 10:28:24;;;;;;;9.40;6.10;;;3.90;99.90;;;;;;4937350;29;20205;-80
2023/11/17 10:30:55;;;;;;;8.80;5.73;;;4.00;99.90;;;;;;4937701;29;20204;-81
2023/11/17 10:33:29;;;;;;;8.40;5.87;;;3.90;99.90;;;;;;4937479;29;20247;-80
2023/11/17 10:36:15;;;;;;;8.63;5.70;;;3.90;99.90;;;;;;4936447;29;20233;-80
2023/11/17 10:38:47;;;;;;;8.07;5.60;;;3.90;99.90;;;;;;4937365;29;20202;-85
2023/11/17 10:41:54;;;;;;;8.07;5.57;;;3.90;99.90;;;;;;4936109;29;20759;-83
2023/11/17 10:44:19;;;;;;;8.63;5.60;;;4.00;99.90;;;;;;4936240;29;20250;-85
2023/11/17 10:46:48;;;;;;;9.03;5.90;;;3.90;99.90;;;;;;4937299;29;20199;-81
2023/11/17 10:49:16;;;;;;;8.47;5.83;;;3.90;99.90;;;;;;4937290;29;20553;-80
2023/11/17 10:51:49;;;;;;;9.57;5.93;;;3.80;99.90;;;;;;4920701;29;20219;-83
2023/11/17 10:54:18;;;;;;;9.10;6.00;;;3.80;99.90;;;;;;4936039;29;20301;-86
2023/11/17 10:56:52;;;;;;;8.50;5.90;;;3.70;99.90;;;;;;4937337;29;20315;-85
2023/11/17 10:59:20;;;;;;;8.57;6.23;;;3.80;99.90;;;;;;4936531;29;20230;-86
2023/11/17 11:01:50;;;;;;;8.43;5.67;;;3.80;99.90;;;;;;4935385;29;20214;-86
2023/11/17 11:04:27;;;;;;;8.87;6.20;;;3.80;99.90;;;;;;4935946;29;20321;-83
2023/11/17 11:06:58;;;;;;;8.37;6.00;;;3.90;99.90;;;;;;4936933;29;20190;-84
2023/11/17 11:09:38;;;;;;;9.50;6.27;;;3.90;99.90;;;;;;4935554;29;20200;-85
2023/11/17 11:12:13;;;;;;;7.97;5.70;;;3.90;99.90;;;;;;4937185;29;20218;-84
2023/11/17 11:14:41;;;;;;;9.83;6.20;;;3.80;99.90;;;;;;4919671;29;20202;-85
2023/11/17 11:17:12;;;;;;;8.20;6.10;;;3.80;99.90;;;;;;4919373;29;20728;-85
2023/11/17 11:19:44;;;;;;;9.83;6.60;;;3.90;99.90;;;;;;4937354;29;20195;-84
2023/11/17 11:22:30;;;;;;;8.53;6.23;;;3.80;99.90;;;;;;4936786;29;20211;-86
2023/11/17 11:24:59;;;;;;;8.80;6.23;;;3.80;99.90;;;;;;4936734;29;20203;-85
2023/11/17 11:27:27;;;;;;;10.63;6.57;;;3.80;99.90;;;;;;4935253;29;20207;-82
2023/11/17 11:29:56;;;;;;;10.17;6.47;;;3.80;99.90;;;;;;4936272;29;20203;-82
2023/11/17 11:32:23;;;;;;;10.93;6.87;;;3.80;99.90;;;;;;4936743;29;20218;-80
2023/11/17 11:34:50;;;;;;;10.73;7.07;;;3.80;99.90;;;;;;4935219;29;20226;-80
2023/11/17 11:37:18;;;;;;;10.13;6.83;;;3.90;99.90;;;;;;4935391;29;20229;-80
2023/11/17 11:39:46;;;;;;;9.43;6.67;;;3.90;99.90;;;;;;4936380;29;20279;-80
2023/11/17 11:42:13;;;;;;;9.10;7.00;;;3.90;99.90;;;;;;4936297;29;20230;-80
2023/11/17 11:44:41;;;;;;;9.03;6.63;;;3.90;99.90;;;;;;4936211;29;20207;-80
2023/11/17 11:47:08;;;;;;;10.33;6.47;;;4.00;99.90;;;;;;4934799;29;20223;-80
2023/11/17 11:49:36;;;;;;;9.83;6.77;;;4.00;99.90;;;;;;4936198;29;20282;-80
2023/11/17 11:52:13;;;;;;;12.73;6.83;;;3.80;99.90;;;;;;4936020;29;20202;-80
2023/11/17 11:54:40;;;;;;;10.50;7.10;;;3.70;99.90;;;;;;4934949;29;20300;-80
2023/11/17 11:57:29;;;;;;;10.07;7.00;;;3.70;99.90;;;;;;4934923;29;20223;-81
2023/11/17 12:00:00;;;;;;;9.73;6.80;;;3.80;99.90;;;;;;4935562;29;20277;-79
2023/11/17 12:02:30;;;;;;;10.10;6.80;;;3.80;99.90;;;;;;4935787;29;20220;-78
2023/11/17 12:05:03;;;;;;;12.17;6.83;;;3.80;99.90;;;;;;4935371;29;20455;-78
2023/11/17 12:07:35;;;;;;;9.77;6.70;;;3.90;99.90;;;;;;4935708;29;20226;-78
2023/11/17 12:10:05;;;;;;;9.30;6.87;;;3.90;99.90;;;;;;4918554;29;20595;-81
2023/11/17 12:12:33;;;;;;;10.17;6.80;;;3.90;99.90;;;;;;4918544;29;20686;-83
2023/11/17 12:15:03;;;;;;;9.57;6.60;;;3.90;99.90;;;;;;4934478;29;20230;-83
2023/11/17 12:17:31;;;;;;;9.13;6.50;;;3.80;99.90;;;;;;4936335;29;20241;-82
2023/11/17 12:20:17;;;;;;;10.50;7.00;;;3.90;99.90;;;;;;4935607;29;20203;-79
2023/11/17 12:22:59;;;;;;;10.57;7.13;;;3.80;99.90;;;;;;4933917;29;20203;-81
2023/11/17 12:25:28;;;;;;;10.30;6.90;;;3.90;99.90;;;;;;4950150;29;20229;-83
2023/11/17 12:27:56;;;;;;;9.13;6.30;;;3.90;99.90;;;;;;4949976;29;20278;-80
2023/11/17 12:30:27;;;;;;;8.83;6.47;;;3.90;99.90;;;;;;4935159;29;20289;-83
2023/11/17 12:32:57;;;;;;;8.80;5.77;;;3.80;99.90;;;;;;4933895;29;20198;-83
2023/11/17 12:35:26;;;;;;;7.60;5.83;;;3.80;99.90;;;;;;4935882;29;20223;-84
2023/11/17 12:37:55;;;;;;;5.90;4.90;;;3.80;99.90;;;;;;4934034;29;20323;-81
2023/11/17 12:40:22;;;;;;;8.17;5.20;;;3.70;99.90;;;;;;4935416;29;20699;-81
2023/11/17 12:42:50;;;;;;;7.70;5.27;;;3.70;99.90;;;;;;4934183;29;20200;-82
2023/11/17 12:45:19;;;;;;;9.13;5.63;;;3.70;99.90;;;;;;4935489;29;20207;-81
2023/11/17 12:47:47;;;;;;;7.00;4.77;;;3.70;99.90;;;;;;4934135;29;20282;-80
2023/11/17 12:50:14;;;;;;;6.23;4.63;;;3.80;99.90;;;;;;4933950;29;20198;-81
2023/11/17 12:52:57;;;;;;;6.60;4.30;;;3.70;99.90;;;;;;4934970;29;20196;-81
2023/11/17 12:55:29;;;;;;;6.43;4.53;;;3.70;99.90;;;;;;4902562;29;20254;-80
2023/11/17 12:57:56;;;;;;;6.47;5.10;;;3.70;99.90;;;;;;4934722;29;20277;-81